SBRB/RBR METAR and TAF weather

Enter ICAO airport designator
Station Type Date Time Source
SBRB METAR 2021/04/14 19:00 UTC NOAA

SBRB 141900Z 18005KT 9999 VCSH SCT025 FEW030TCU 31/25 Q1011


Station Type Date Time Source
SBRB Decoded METAR 2021/04/14 19:00 UTC NOAA

Rio Branco, Brazil (SBRB) 10-00S 067-48W 143M
Apr 14, 2021 - 03:00 PM EDT / 2021.04.14 1900 UTC
Wind: from the S (180 degrees) at 6 MPH (5 KT):0
Visibility: greater than 7 mile(s):0
Sky conditions: partly cloudy
Weather: showers in the vicinity; Towering cumulus clouds observed
Temperature: 87 F (31 C)
Heat index: 97.5 F (36.4 C):1
Dew Point: 77 F (25 C)
Relative Humidity: 70%
Pressure (altimeter): 29.85 in. Hg (1011 hPa)
ob: SBRB 141900Z 18005KT 9999 VCSH SCT025 FEW030TCU 31/25 Q1011
cycle: 19

Station Type Date Time Source
SBRB TAF 2021/04/14 18:42 UTC NOAA

TAF SBRB 141527Z 1418/1506 14005KT 9999 SCT025 FEW030TCU TX29/1418Z TN23/1506Z PROB40
TEMPO 1418/1423 25007KT 4000 TSRA BKN020 FEW030CB
RMK PHQ

Example: see airport list